createdAt,value
2018-01-21T00:05:10.638Z,98043.49
2018-01-21T00:11:14.091Z,98046.96
2018-01-21T00:17:17.542Z,98043.50
2018-01-21T00:23:21.188Z,98059.91
2018-01-21T00:29:24.672Z,98067.49
2018-01-21T00:35:28.957Z,98083.42
2018-01-21T00:41:33.372Z,98081.05
2018-01-21T00:47:36.870Z,98098.05
2018-01-21T00:53:40.340Z,98099.27
2018-01-21T00:59:44.679Z,98106.36
2018-01-21T01:05:48.250Z,98123.20
2018-01-21T01:11:51.735Z,98135.36
2018-01-21T01:17:55.656Z,98149.79
2018-01-21T01:23:59.128Z,98162.00
2018-01-21T01:30:03.390Z,98163.31
2018-01-21T01:36:07.124Z,98178.09
2018-01-21T01:42:10.593Z,98198.31
2018-01-21T01:48:14.049Z,98213.79
2018-01-21T01:54:18.251Z,98217.66
2018-01-21T02:00:21.671Z,98227.90
2018-01-21T02:06:26.094Z,98236.99
2018-01-21T02:12:29.549Z,98249.19
2018-01-21T02:18:33.001Z,98254.38
2018-01-21T02:24:39.585Z,98273.20
2018-01-21T02:30:43.013Z,98276.00
2018-01-21T02:36:46.504Z,98283.08
2018-01-21T02:42:49.972Z,98298.41
2018-01-21T02:48:53.400Z,98307.42
2018-01-21T02:54:57.236Z,98320.53
2018-01-21T03:01:00.681Z,98330.84
2018-01-21T03:07:04.142Z,98345.95
2018-01-21T03:13:07.608Z,98354.75
2018-01-21T03:19:11.223Z,98372.16
2018-01-21T03:25:14.682Z,98378.61
2018-01-21T03:31:18.126Z,98394.94
2018-01-21T03:37:21.585Z,98405.58
2018-01-21T03:43:25.083Z,98421.29
2018-01-21T03:49:29.442Z,98428.12
2018-01-21T03:55:32.983Z,98442.17
2018-01-21T04:01:36.490Z,98441.10
2018-01-21T04:07:40.014Z,98461.22
2018-01-21T04:13:43.558Z,98482.22
2018-01-21T04:19:47.025Z,98495.45
2018-01-21T04:25:50.534Z,98510.39
2018-01-21T04:31:54.199Z,98520.02
2018-01-21T04:37:58.256Z,98528.39
2018-01-21T04:44:01.878Z,98545.47
2018-01-21T04:50:06.102Z,98554.05
2018-01-21T04:56:09.567Z,98575.47
2018-01-21T05:02:13.103Z,98591.66
2018-01-21T05:08:16.565Z,98601.14
2018-01-21T05:14:20.040Z,98605.77
2018-01-21T05:20:23.540Z,98614.95
2018-01-21T05:26:27.542Z,98616.87
2018-01-21T05:32:31.101Z,98628.25
2018-01-21T05:38:34.710Z,98636.70
2018-01-21T05:44:38.945Z,98646.13
2018-01-21T05:50:42.407Z,98658.34
2018-01-21T05:56:45.982Z,98664.69
2018-01-21T06:02:50.298Z,98677.39
2018-01-21T06:08:53.828Z,98693.03
2018-01-21T06:14:57.593Z,98709.16
2018-01-21T06:21:01.066Z,98718.79
2018-01-21T06:27:04.498Z,98730.13
2018-01-21T06:33:08.107Z,98741.59
2018-01-21T06:39:11.547Z,98745.17
2018-01-21T06:45:14.973Z,98766.05
2018-01-21T06:51:18.417Z,98781.11
2018-01-21T06:57:21.853Z,98797.78
2018-01-21T07:03:25.422Z,98811.92
2018-01-21T07:09:29.025Z,98823.65
2018-01-21T07:15:32.456Z,98842.83
2018-01-21T07:21:35.939Z,98850.31
2018-01-21T07:27:40.233Z,98870.56
2018-01-21T07:33:44.552Z,98881.25
2018-01-21T07:39:48.170Z,98877.98
2018-01-21T07:45:51.632Z,98901.34
2018-01-21T07:51:55.437Z,98921.24
2018-01-21T07:57:59.105Z,98941.19
2018-01-21T08:04:02.691Z,98949.85
2018-01-21T08:10:06.944Z,98957.19
2018-01-21T08:16:10.373Z,98968.14
2018-01-21T08:22:13.809Z,98986.03
2018-01-21T08:28:17.240Z,98996.63
2018-01-21T08:34:26.116Z,99019.56
2018-01-21T08:40:35.185Z,99032.37
2018-01-21T08:46:39.360Z,99033.65
2018-01-21T08:52:43.566Z,99035.26
2018-01-21T08:58:47.040Z,99050.92
2018-01-21T09:04:50.542Z,99058.48
2018-01-21T09:10:53.991Z,99065.09
2018-01-21T09:16:57.431Z,99078.98
2018-01-21T09:23:01.645Z,99088.45
2018-01-21T09:29:05.177Z,99112.33
2018-01-21T09:35:08.620Z,99107.41
2018-01-21T09:41:12.847Z,99120.55
2018-01-21T09:47:16.318Z,99133.98
2018-01-21T09:53:19.834Z,99149.50
2018-01-21T09:59:23.300Z,99153.05
2018-01-21T10:05:26.844Z,99168.92
2018-01-21T10:11:30.989Z,99172.05
2018-01-21T10:17:34.443Z,99178.63
2018-01-21T10:23:37.877Z,99182.77
2018-01-21T10:29:42.100Z,99189.48
2018-01-21T10:35:45.550Z,99208.05
2018-01-21T10:41:48.993Z,99220.06
2018-01-21T10:47:52.485Z,99223.77
2018-01-21T10:53:55.941Z,99230.38
2018-01-21T11:00:00.234Z,99246.01
2018-01-21T11:06:04.459Z,99250.30
2018-01-21T11:12:07.900Z,99261.94
2018-01-21T11:18:11.344Z,99264.42
2018-01-21T11:24:14.829Z,99279.88
2018-01-21T11:30:18.338Z,99280.39
2018-01-21T11:36:21.784Z,99280.52
2018-01-21T11:42:25.499Z,99286.36
2018-01-21T11:48:28.963Z,99295.72
2018-01-21T11:54:33.306Z,99303.12
2018-01-21T12:00:36.873Z,99309.10
2018-01-21T12:06:40.544Z,99306.76
2018-01-21T12:12:43.995Z,99309.20
2018-01-21T12:18:47.422Z,99309.56
2018-01-21T12:24:50.854Z,99298.52
2018-01-21T12:30:54.696Z,99304.36
2018-01-21T12:36:58.165Z,99305.09
2018-01-21T12:43:01.597Z,99316.33
2018-01-21T12:49:05.856Z,99327.25
2018-01-21T12:55:09.543Z,99316.61
2018-01-21T13:01:13.598Z,99321.80
2018-01-21T13:07:17.073Z,99339.39
2018-01-21T13:13:20.514Z,99355.88
2018-01-21T13:19:23.965Z,99352.52
2018-01-21T13:25:27.982Z,99364.59
2018-01-21T13:31:31.417Z,99365.38
2018-01-21T13:37:34.849Z,99377.70
2018-01-21T13:43:38.495Z,99396.59
2018-01-21T13:49:41.986Z,99394.41
2018-01-21T13:55:45.437Z,99414.00
2018-01-21T14:01:48.919Z,99416.67
2018-01-21T14:07:52.351Z,99421.52
2018-01-21T14:13:55.814Z,99436.19
2018-01-21T14:19:59.389Z,99451.45
2018-01-21T14:26:03.053Z,99447.86
2018-01-21T14:32:07.274Z,99441.84
2018-01-21T14:38:11.513Z,99450.39
2018-01-21T14:44:14.942Z,99460.69
2018-01-21T14:50:19.215Z,99465.75
2018-01-21T14:56:23.844Z,99480.50
2018-01-21T15:02:27.567Z,99479.88
2018-01-21T15:08:31.022Z,99486.30
2018-01-21T15:14:35.345Z,99487.70
2018-01-21T15:20:38.860Z,99478.02
2018-01-21T15:26:42.293Z,99489.08
2018-01-21T15:32:46.598Z,99487.23
2018-01-21T15:38:50.040Z,99499.97
2018-01-21T15:44:53.504Z,99504.80
2018-01-21T15:50:56.997Z,99506.67
2018-01-21T15:57:00.479Z,99510.88
2018-01-21T16:03:04.965Z,99494.93
2018-01-21T16:09:09.156Z,99497.87
2018-01-21T16:15:12.594Z,99482.36
2018-01-21T16:21:16.040Z,99498.76
2018-01-21T16:27:20.257Z,99490.35
2018-01-21T16:33:24.004Z,99501.64
2018-01-21T16:39:27.674Z,99498.20
2018-01-21T16:45:31.416Z,99494.42
2018-01-21T16:51:34.915Z,99492.55
2018-01-21T16:57:38.345Z,99495.58
2018-01-21T17:03:45.244Z,99489.95
2018-01-21T17:09:48.940Z,99490.41
2018-01-21T17:15:53.734Z,99471.34
2018-01-21T17:21:58.689Z,99450.98
2018-01-21T17:28:02.263Z,99432.69
2018-01-21T17:34:05.817Z,99420.13
2018-01-21T17:40:09.256Z,99430.30
2018-01-21T17:46:12.870Z,99441.39
2018-01-21T17:52:17.118Z,99456.09
2018-01-21T17:58:20.640Z,99461.26
2018-01-21T18:04:24.349Z,99467.56
2018-01-21T18:10:28.618Z,99471.75
2018-01-21T18:16:32.134Z,99487.71
2018-01-21T18:22:35.627Z,99504.30
2018-01-21T18:28:39.168Z,99503.08
2018-01-21T18:34:42.687Z,99505.47
2018-01-21T18:40:46.130Z,99508.64
2018-01-21T18:46:49.726Z,99509.80
2018-01-21T18:52:53.865Z,99510.34
2018-01-21T18:58:57.295Z,99508.36
2018-01-21T19:05:00.831Z,99499.84
2018-01-21T19:11:05.058Z,99499.41
2018-01-21T19:17:08.507Z,99485.20
2018-01-21T19:23:11.946Z,99489.45
2018-01-21T19:29:15.406Z,99464.12
2018-01-21T19:35:19.126Z,99480.28
2018-01-21T19:41:23.356Z,99473.96
2018-01-21T19:47:26.809Z,99473.50
2018-01-21T19:53:30.289Z,99472.49
2018-01-21T19:59:33.778Z,99451.83
2018-01-21T20:05:37.242Z,99458.40
2018-01-21T20:11:41.746Z,99451.41
2018-01-21T20:17:45.242Z,99439.89
2018-01-21T20:23:50.080Z,99452.11
2018-01-21T20:29:54.361Z,99450.63
2018-01-21T20:35:57.790Z,99432.03
2018-01-21T20:42:01.228Z,99410.03
2018-01-21T20:48:04.763Z,99400.21
2018-01-21T20:54:14.449Z,99382.39
2018-01-21T21:00:18.708Z,99377.72
2018-01-21T21:06:22.656Z,99376.11
2018-01-21T21:12:26.155Z,99383.13
2018-01-21T21:18:31.202Z,99377.27
2018-01-21T21:24:34.993Z,99378.11
2018-01-21T21:30:39.241Z,99356.83
2018-01-21T21:36:42.680Z,99374.86
2018-01-21T21:42:46.130Z,99370.86
2018-01-21T21:48:49.931Z,99343.23
2018-01-21T21:54:54.141Z,99341.73
2018-01-21T22:00:57.576Z,99336.95
2018-01-21T22:07:01.108Z,99310.49
2018-01-21T22:13:05.407Z,99297.25
2018-01-21T22:19:08.843Z,99325.75
2018-01-21T22:25:13.089Z,99331.58
2018-01-21T22:31:16.696Z,99305.55
2018-01-21T22:50:20.865Z,99284.48
2018-01-21T22:56:24.553Z,99281.64
2018-01-21T23:02:28.290Z,99286.83
2018-01-21T23:08:31.762Z,99260.44
2018-01-21T23:14:35.299Z,99244.25
2018-01-21T23:20:56.511Z,99251.20
2018-01-21T23:26:59.954Z,99233.36
2018-01-21T23:33:03.453Z,99239.13
2018-01-21T23:39:06.909Z,99234.58
2018-01-21T23:45:10.373Z,99225.71
2018-01-21T23:51:14.429Z,99222.03
2018-01-21T23:57:17.850Z,99199.45
